sensor_id;sensor_type;location;lat;lon;timestamp;P1;durP1;ratioP1;P2;durP2;ratioP2
20230;SDS011;10274;49.022;9.338;2023-08-06T00:00:12;2.20;;;2.00;;
20230;SDS011;10274;49.022;9.338;2023-08-06T00:02:39;2.47;;;2.10;;
20230;SDS011;10274;49.022;9.338;2023-08-06T00:05:07;1.93;;;1.77;;
20230;SDS011;10274;49.022;9.338;2023-08-06T00:07:34;2.30;;;2.10;;
20230;SDS011;10274;49.022;9.338;2023-08-06T00:10:01;2.47;;;2.17;;
20230;SDS011;10274;49.022;9.338;2023-08-06T00:12:28;2.60;;;2.00;;
20230;SDS011;10274;49.022;9.338;2023-08-06T00:14:54;3.40;;;2.27;;
20230;SDS011;10274;49.022;9.338;2023-08-06T00:17:21;2.40;;;2.20;;
20230;SDS011;10274;49.022;9.338;2023-08-06T00:19:48;2.50;;;2.20;;
20230;SDS011;10274;49.022;9.338;2023-08-06T00:22:16;2.23;;;2.03;;
20230;SDS011;10274;49.022;9.338;2023-08-06T00:24:43;2.70;;;1.87;;
20230;SDS011;10274;49.022;9.338;2023-08-06T00:27:09;2.13;;;1.93;;
20230;SDS011;10274;49.022;9.338;2023-08-06T00:29:36;2.47;;;2.27;;
20230;SDS011;10274;49.022;9.338;2023-08-06T00:32:03;2.53;;;1.90;;
20230;SDS011;10274;49.022;9.338;2023-08-06T00:34:30;2.10;;;1.80;;
20230;SDS011;10274;49.022;9.338;2023-08-06T00:36:56;2.23;;;2.03;;
20230;SDS011;10274;49.022;9.338;2023-08-06T00:39:24;3.17;;;2.10;;
20230;SDS011;10274;49.022;9.338;2023-08-06T00:41:51;2.60;;;1.90;;
20230;SDS011;10274;49.022;9.338;2023-08-06T00:44:18;2.30;;;1.97;;
20230;SDS011;10274;49.022;9.338;2023-08-06T00:46:44;1.90;;;1.80;;
20230;SDS011;10274;49.022;9.338;2023-08-06T00:49:11;2.00;;;1.90;;
20230;SDS011;10274;49.022;9.338;2023-08-06T00:51:38;2.27;;;2.07;;
20230;SDS011;10274;49.022;9.338;2023-08-06T00:54:05;2.80;;;2.20;;
20230;SDS011;10274;49.022;9.338;2023-08-06T00:56:34;2.67;;;2.20;;
20230;SDS011;10274;49.022;9.338;2023-08-06T00:59:01;2.80;;;2.07;;
20230;SDS011;10274;49.022;9.338;2023-08-06T01:01:29;2.87;;;2.30;;
20230;SDS011;10274;49.022;9.338;2023-08-06T01:03:56;2.40;;;2.20;;
20230;SDS011;10274;49.022;9.338;2023-08-06T01:06:23;2.87;;;2.57;;
20230;SDS011;10274;49.022;9.338;2023-08-06T01:09:01;2.90;;;2.47;;
20230;SDS011;10274;49.022;9.338;2023-08-06T01:11:41;2.63;;;2.33;;
20230;SDS011;10274;49.022;9.338;2023-08-06T01:14:18;3.00;;;2.57;;
20230;SDS011;10274;49.022;9.338;2023-08-06T01:16:52;2.53;;;2.30;;
20230;SDS011;10274;49.022;9.338;2023-08-06T01:19:20;3.33;;;2.33;;
20230;SDS011;10274;49.022;9.338;2023-08-06T01:21:48;2.63;;;2.20;;
20230;SDS011;10274;49.022;9.338;2023-08-06T01:24:15;3.70;;;2.50;;
20230;SDS011;10274;49.022;9.338;2023-08-06T01:26:42;2.30;;;2.10;;
20230;SDS011;10274;49.022;9.338;2023-08-06T01:29:15;3.27;;;2.60;;
20230;SDS011;10274;49.022;9.338;2023-08-06T01:31:48;2.80;;;2.60;;
20230;SDS011;10274;49.022;9.338;2023-08-06T01:34:17;3.43;;;2.80;;
20230;SDS011;10274;49.022;9.338;2023-08-06T01:36:46;3.10;;;2.80;;
20230;SDS011;10274;49.022;9.338;2023-08-06T01:39:16;3.20;;;2.90;;
20230;SDS011;10274;49.022;9.338;2023-08-06T01:41:45;3.20;;;2.90;;
20230;SDS011;10274;49.022;9.338;2023-08-06T01:44:12;3.30;;;3.00;;
20230;SDS011;10274;49.022;9.338;2023-08-06T01:46:39;3.77;;;2.83;;
20230;SDS011;10274;49.022;9.338;2023-08-06T01:49:06;2.87;;;2.60;;
20230;SDS011;10274;49.022;9.338;2023-08-06T01:51:33;3.07;;;2.77;;
20230;SDS011;10274;49.022;9.338;2023-08-06T01:54:01;3.40;;;3.10;;
20230;SDS011;10274;49.022;9.338;2023-08-06T01:56:28;3.33;;;3.00;;
20230;SDS011;10274;49.022;9.338;2023-08-06T01:58:55;4.60;;;3.20;;
20230;SDS011;10274;49.022;9.338;2023-08-06T02:01:21;4.33;;;3.20;;
20230;SDS011;10274;49.022;9.338;2023-08-06T02:03:48;3.17;;;2.87;;
20230;SDS011;10274;49.022;9.338;2023-08-06T02:06:15;3.80;;;2.73;;
20230;SDS011;10274;49.022;9.338;2023-08-06T02:08:42;3.13;;;2.83;;
20230;SDS011;10274;49.022;9.338;2023-08-06T02:11:10;3.93;;;2.77;;
20230;SDS011;10274;49.022;9.338;2023-08-06T02:13:36;4.23;;;2.97;;
20230;SDS011;10274;49.022;9.338;2023-08-06T02:16:03;3.40;;;3.10;;
20230;SDS011;10274;49.022;9.338;2023-08-06T02:18:32;3.50;;;3.20;;
20230;SDS011;10274;49.022;9.338;2023-08-06T02:20:59;5.63;;;3.57;;
20230;SDS011;10274;49.022;9.338;2023-08-06T02:23:26;3.47;;;3.17;;
20230;SDS011;10274;49.022;9.338;2023-08-06T02:25:56;3.30;;;3.00;;
20230;SDS011;10274;49.022;9.338;2023-08-06T02:28:25;4.70;;;3.50;;
20230;SDS011;10274;49.022;9.338;2023-08-06T02:30:52;3.77;;;3.47;;
20230;SDS011;10274;49.022;9.338;2023-08-06T02:33:19;3.70;;;3.33;;
20230;SDS011;10274;49.022;9.338;2023-08-06T02:35:46;3.20;;;2.90;;
20230;SDS011;10274;49.022;9.338;2023-08-06T02:38:13;3.03;;;2.73;;
20230;SDS011;10274;49.022;9.338;2023-08-06T02:40:42;3.40;;;2.67;;
20230;SDS011;10274;49.022;9.338;2023-08-06T02:43:10;3.87;;;2.90;;
20230;SDS011;10274;49.022;9.338;2023-08-06T02:45:38;2.77;;;2.57;;
20230;SDS011;10274;49.022;9.338;2023-08-06T02:48:05;4.17;;;3.33;;
20230;SDS011;10274;49.022;9.338;2023-08-06T02:50:37;2.90;;;2.70;;
20230;SDS011;10274;49.022;9.338;2023-08-06T02:53:05;4.20;;;3.03;;
20230;SDS011;10274;49.022;9.338;2023-08-06T02:55:32;3.30;;;3.00;;
20230;SDS011;10274;49.022;9.338;2023-08-06T02:57:59;4.20;;;3.10;;
20230;SDS011;10274;49.022;9.338;2023-08-06T03:00:26;3.13;;;2.83;;
20230;SDS011;10274;49.022;9.338;2023-08-06T03:02:54;2.77;;;2.50;;
20230;SDS011;10274;49.022;9.338;2023-08-06T03:05:21;3.37;;;2.93;;
20230;SDS011;10274;49.022;9.338;2023-08-06T03:07:48;3.40;;;2.43;;
20230;SDS011;10274;49.022;9.338;2023-08-06T03:10:14;2.80;;;2.60;;
20230;SDS011;10274;49.022;9.338;2023-08-06T03:12:41;3.00;;;2.80;;
20230;SDS011;10274;49.022;9.338;2023-08-06T03:15:08;3.07;;;2.77;;
20230;SDS011;10274;49.022;9.338;2023-08-06T03:17:35;2.77;;;2.50;;
20230;SDS011;10274;49.022;9.338;2023-08-06T03:20:04;3.03;;;2.40;;
20230;SDS011;10274;49.022;9.338;2023-08-06T03:22:32;3.70;;;2.27;;
20230;SDS011;10274;49.022;9.338;2023-08-06T03:24:58;4.33;;;2.70;;
20230;SDS011;10274;49.022;9.338;2023-08-06T03:27:25;3.00;;;2.40;;
20230;SDS011;10274;49.022;9.338;2023-08-06T03:29:52;2.37;;;2.17;;
20230;SDS011;10274;49.022;9.338;2023-08-06T03:32:19;2.87;;;2.50;;
20230;SDS011;10274;49.022;9.338;2023-08-06T03:34:45;3.60;;;2.80;;
20230;SDS011;10274;49.022;9.338;2023-08-06T03:37:13;8.00;;;3.00;;
20230;SDS011;10274;49.022;9.338;2023-08-06T03:39:40;2.90;;;2.60;;
20230;SDS011;10274;49.022;9.338;2023-08-06T03:42:07;2.60;;;2.40;;
20230;SDS011;10274;49.022;9.338;2023-08-06T03:44:34;3.50;;;2.60;;
20230;SDS011;10274;49.022;9.338;2023-08-06T03:47:00;3.90;;;2.50;;
20230;SDS011;10274;49.022;9.338;2023-08-06T03:49:27;3.23;;;2.73;;
20230;SDS011;10274;49.022;9.338;2023-08-06T03:51:54;3.00;;;2.70;;
20230;SDS011;10274;49.022;9.338;2023-08-06T03:54:22;3.63;;;2.40;;
20230;SDS011;10274;49.022;9.338;2023-08-06T03:56:48;2.67;;;2.47;;
20230;SDS011;10274;49.022;9.338;2023-08-06T03:59:15;3.03;;;2.50;;
20230;SDS011;10274;49.022;9.338;2023-08-06T04:01:42;3.03;;;2.60;;
20230;SDS011;10274;49.022;9.338;2023-08-06T04:04:08;3.00;;;2.67;;
20230;SDS011;10274;49.022;9.338;2023-08-06T04:06:35;3.93;;;2.70;;
20230;SDS011;10274;49.022;9.338;2023-08-06T04:09:02;3.07;;;2.43;;
20230;SDS011;10274;49.022;9.338;2023-08-06T04:11:30;2.80;;;2.20;;
20230;SDS011;10274;49.022;9.338;2023-08-06T04:13:57;3.73;;;2.73;;
20230;SDS011;10274;49.022;9.338;2023-08-06T04:16:23;2.90;;;2.63;;
20230;SDS011;10274;49.022;9.338;2023-08-06T04:18:52;2.90;;;2.60;;
20230;SDS011;10274;49.022;9.338;2023-08-06T04:21:20;3.90;;;2.40;;
20230;SDS011;10274;49.022;9.338;2023-08-06T04:23:47;3.73;;;2.27;;
20230;SDS011;10274;49.022;9.338;2023-08-06T04:26:14;2.87;;;2.30;;
20230;SDS011;10274;49.022;9.338;2023-08-06T04:28:42;2.47;;;2.20;;
20230;SDS011;10274;49.022;9.338;2023-08-06T04:31:08;4.57;;;2.60;;
20230;SDS011;10274;49.022;9.338;2023-08-06T04:33:35;2.50;;;2.30;;
20230;SDS011;10274;49.022;9.338;2023-08-06T04:36:02;3.83;;;2.30;;
20230;SDS011;10274;49.022;9.338;2023-08-06T04:38:29;2.40;;;2.20;;
20230;SDS011;10274;49.022;9.338;2023-08-06T04:40:56;2.67;;;2.43;;
20230;SDS011;10274;49.022;9.338;2023-08-06T04:43:23;3.00;;;2.57;;
20230;SDS011;10274;49.022;9.338;2023-08-06T04:45:53;3.30;;;2.90;;
20230;SDS011;10274;49.022;9.338;2023-08-06T04:48:20;3.00;;;2.47;;
20230;SDS011;10274;49.022;9.338;2023-08-06T04:50:48;3.27;;;2.07;;
20230;SDS011;10274;49.022;9.338;2023-08-06T04:53:16;5.73;;;2.60;;
20230;SDS011;10274;49.022;9.338;2023-08-06T04:55:43;2.97;;;2.60;;
20230;SDS011;10274;49.022;9.338;2023-08-06T04:58:09;3.50;;;2.57;;
20230;SDS011;10274;49.022;9.338;2023-08-06T05:00:36;3.30;;;2.17;;
20230;SDS011;10274;49.022;9.338;2023-08-06T05:03:05;3.07;;;2.77;;
20230;SDS011;10274;49.022;9.338;2023-08-06T05:05:32;2.57;;;2.37;;
20230;SDS011;10274;49.022;9.338;2023-08-06T05:07:59;2.87;;;2.40;;
20230;SDS011;10274;49.022;9.338;2023-08-06T05:10:25;2.63;;;2.43;;
20230;SDS011;10274;49.022;9.338;2023-08-06T05:12:53;3.40;;;2.10;;
20230;SDS011;10274;49.022;9.338;2023-08-06T05:15:20;4.00;;;2.20;;
20230;SDS011;10274;49.022;9.338;2023-08-06T05:17:46;3.20;;;1.80;;
20230;SDS011;10274;49.022;9.338;2023-08-06T05:20:15;3.60;;;1.93;;
20230;SDS011;10274;49.022;9.338;2023-08-06T05:22:42;3.43;;;2.00;;
20230;SDS011;10274;49.022;9.338;2023-08-06T05:25:09;4.93;;;1.80;;
20230;SDS011;10274;49.022;9.338;2023-08-06T05:27:42;2.83;;;1.60;;
20230;SDS011;10274;49.022;9.338;2023-08-06T05:30:09;2.50;;;1.60;;
20230;SDS011;10274;49.022;9.338;2023-08-06T05:32:36;2.37;;;1.53;;
20230;SDS011;10274;49.022;9.338;2023-08-06T05:35:03;2.27;;;1.97;;
20230;SDS011;10274;49.022;9.338;2023-08-06T05:37:32;2.73;;;1.80;;
20230;SDS011;10274;49.022;9.338;2023-08-06T05:39:59;3.20;;;1.60;;
20230;SDS011;10274;49.022;9.338;2023-08-06T05:42:26;2.57;;;1.50;;
20230;SDS011;10274;49.022;9.338;2023-08-06T05:44:53;1.60;;;1.40;;
20230;SDS011;10274;49.022;9.338;2023-08-06T05:47:20;1.83;;;1.20;;
20230;SDS011;10274;49.022;9.338;2023-08-06T05:49:46;1.90;;;1.30;;
20230;SDS011;10274;49.022;9.338;2023-08-06T05:52:13;1.87;;;1.40;;
20230;SDS011;10274;49.022;9.338;2023-08-06T05:54:41;3.57;;;1.47;;
20230;SDS011;10274;49.022;9.338;2023-08-06T05:57:08;1.87;;;1.03;;
20230;SDS011;10274;49.022;9.338;2023-08-06T05:59:35;1.60;;;1.50;;
20230;SDS011;10274;49.022;9.338;2023-08-06T06:02:01;1.50;;;1.23;;
20230;SDS011;10274;49.022;9.338;2023-08-06T06:04:28;2.60;;;1.10;;
20230;SDS011;10274;49.022;9.338;2023-08-06T06:06:55;1.73;;;1.00;;
20230;SDS011;10274;49.022;9.338;2023-08-06T06:09:22;2.57;;;1.27;;
20230;SDS011;10274;49.022;9.338;2023-08-06T06:11:50;1.67;;;0.90;;
20230;SDS011;10274;49.022;9.338;2023-08-06T06:14:16;1.27;;;1.10;;
20230;SDS011;10274;49.022;9.338;2023-08-06T06:16:43;1.43;;;1.00;;
20230;SDS011;10274;49.022;9.338;2023-08-06T06:19:10;2.27;;;1.07;;
20230;SDS011;10274;49.022;9.338;2023-08-06T06:21:37;3.23;;;1.10;;
20230;SDS011;10274;49.022;9.338;2023-08-06T06:24:04;1.40;;;1.00;;
20230;SDS011;10274;49.022;9.338;2023-08-06T06:26:30;2.93;;;1.00;;
20230;SDS011;10274;49.022;9.338;2023-08-06T06:28:59;0.87;;;0.80;;
20230;SDS011;10274;49.022;9.338;2023-08-06T06:31:25;1.10;;;1.00;;
20230;SDS011;10274;49.022;9.338;2023-08-06T06:33:52;1.60;;;1.07;;
20230;SDS011;10274;49.022;9.338;2023-08-06T06:36:19;1.60;;;0.83;;
20230;SDS011;10274;49.022;9.338;2023-08-06T06:38:46;1.40;;;0.90;;
20230;SDS011;10274;49.022;9.338;2023-08-06T06:41:14;1.47;;;1.00;;
20230;SDS011;10274;49.022;9.338;2023-08-06T06:43:41;1.60;;;1.07;;
20230;SDS011;10274;49.022;9.338;2023-08-06T06:46:09;1.77;;;1.10;;
20230;SDS011;10274;49.022;9.338;2023-08-06T06:48:35;1.40;;;1.20;;
20230;SDS011;10274;49.022;9.338;2023-08-06T06:51:02;1.80;;;1.30;;
20230;SDS011;10274;49.022;9.338;2023-08-06T06:53:29;1.23;;;1.03;;
20230;SDS011;10274;49.022;9.338;2023-08-06T06:55:55;1.30;;;1.03;;
20230;SDS011;10274;49.022;9.338;2023-08-06T06:58:27;1.47;;;1.03;;
20230;SDS011;10274;49.022;9.338;2023-08-06T07:00:53;1.47;;;1.27;;
20230;SDS011;10274;49.022;9.338;2023-08-06T07:03:21;1.73;;;1.00;;
20230;SDS011;10274;49.022;9.338;2023-08-06T07:05:49;1.57;;;1.27;;
20230;SDS011;10274;49.022;9.338;2023-08-06T07:08:16;1.40;;;1.30;;
20230;SDS011;10274;49.022;9.338;2023-08-06T07:10:42;1.80;;;1.30;;
20230;SDS011;10274;49.022;9.338;2023-08-06T07:13:09;1.27;;;1.00;;
20230;SDS011;10274;49.022;9.338;2023-08-06T07:15:36;3.67;;;1.40;;
20230;SDS011;10274;49.022;9.338;2023-08-06T07:18:03;1.20;;;0.87;;
20230;SDS011;10274;49.022;9.338;2023-08-06T07:20:31;1.50;;;1.10;;
20230;SDS011;10274;49.022;9.338;2023-08-06T07:23:00;1.53;;;0.80;;
20230;SDS011;10274;49.022;9.338;2023-08-06T07:25:27;1.97;;;1.10;;
20230;SDS011;10274;49.022;9.338;2023-08-06T07:27:54;1.00;;;0.80;;
20230;SDS011;10274;49.022;9.338;2023-08-06T07:30:21;1.87;;;0.70;;
20230;SDS011;10274;49.022;9.338;2023-08-06T07:32:48;1.43;;;0.80;;
20230;SDS011;10274;49.022;9.338;2023-08-06T07:35:15;1.00;;;0.70;;
20230;SDS011;10274;49.022;9.338;2023-08-06T07:37:43;0.73;;;0.63;;
20230;SDS011;10274;49.022;9.338;2023-08-06T07:40:10;0.80;;;0.67;;
20230;SDS011;10274;49.022;9.338;2023-08-06T07:42:37;2.30;;;0.80;;
20230;SDS011;10274;49.022;9.338;2023-08-06T07:45:04;1.27;;;0.80;;
20230;SDS011;10274;49.022;9.338;2023-08-06T07:47:32;0.90;;;0.77;;
20230;SDS011;10274;49.022;9.338;2023-08-06T07:49:58;1.23;;;0.77;;
20230;SDS011;10274;49.022;9.338;2023-08-06T07:52:25;0.60;;;0.50;;
20230;SDS011;10274;49.022;9.338;2023-08-06T07:54:54;0.53;;;0.50;;
20230;SDS011;10274;49.022;9.338;2023-08-06T07:57:20;0.50;;;0.50;;
20230;SDS011;10274;49.022;9.338;2023-08-06T07:59:47;0.57;;;0.50;;
20230;SDS011;10274;49.022;9.338;2023-08-06T08:02:14;0.87;;;0.63;;
20230;SDS011;10274;49.022;9.338;2023-08-06T08:04:40;0.40;;;0.40;;
20230;SDS011;10274;49.022;9.338;2023-08-06T08:07:09;2.47;;;1.13;;
20230;SDS011;10274;49.022;9.338;2023-08-06T08:09:36;0.40;;;0.40;;
20230;SDS011;10274;49.022;9.338;2023-08-06T08:12:04;0.50;;;0.50;;
20230;SDS011;10274;49.022;9.338;2023-08-06T08:14:31;1.00;;;0.33;;
20230;SDS011;10274;49.022;9.338;2023-08-06T08:17:00;1.03;;;0.30;;
20230;SDS011;10274;49.022;9.338;2023-08-06T08:19:28;0.20;;;0.20;;
20230;SDS011;10274;49.022;9.338;2023-08-06T08:21:55;0.33;;;0.30;;
20230;SDS011;10274;49.022;9.338;2023-08-06T08:24:21;0.43;;;0.43;;
20230;SDS011;10274;49.022;9.338;2023-08-06T08:26:49;1.87;;;0.50;;
20230;SDS011;10274;49.022;9.338;2023-08-06T08:29:17;0.50;;;0.40;;
20230;SDS011;10274;49.022;9.338;2023-08-06T08:31:45;0.53;;;0.40;;
20230;SDS011;10274;49.022;9.338;2023-08-06T08:34:14;0.10;;;0.10;;
20230;SDS011;10274;49.022;9.338;2023-08-06T08:36:40;0.57;;;0.47;;
20230;SDS011;10274;49.022;9.338;2023-08-06T08:39:07;0.30;;;0.30;;
20230;SDS011;10274;49.022;9.338;2023-08-06T08:41:35;0.40;;;0.30;;
20230;SDS011;10274;49.022;9.338;2023-08-06T08:44:03;0.30;;;0.20;;
20230;SDS011;10274;49.022;9.338;2023-08-06T08:46:36;1.60;;;0.30;;
20230;SDS011;10274;49.022;9.338;2023-08-06T08:49:06;0.20;;;0.20;;
20230;SDS011;10274;49.022;9.338;2023-08-06T08:51:33;0.40;;;0.40;;
20230;SDS011;10274;49.022;9.338;2023-08-06T08:54:00;0.23;;;0.23;;
20230;SDS011;10274;49.022;9.338;2023-08-06T08:56:29;0.37;;;0.30;;
20230;SDS011;10274;49.022;9.338;2023-08-06T08:58:56;0.20;;;0.20;;
20230;SDS011;10274;49.022;9.338;2023-08-06T09:01:24;1.40;;;0.10;;
20230;SDS011;10274;49.022;9.338;2023-08-06T09:03:52;0.10;;;0.10;;
20230;SDS011;10274;49.022;9.338;2023-08-06T09:06:20;0.43;;;0.43;;
20230;SDS011;10274;49.022;9.338;2023-08-06T09:08:53;0.73;;;0.30;;
20230;SDS011;10274;49.022;9.338;2023-08-06T09:11:26;0.33;;;0.30;;
20230;SDS011;10274;49.022;9.338;2023-08-06T09:13:53;0.20;;;0.20;;
20230;SDS011;10274;49.022;9.338;2023-08-06T09:16:20;0.20;;;0.20;;
20230;SDS011;10274;49.022;9.338;2023-08-06T09:18:47;0.13;;;0.13;;
20230;SDS011;10274;49.022;9.338;2023-08-06T09:21:15;0.17;;;0.17;;
20230;SDS011;10274;49.022;9.338;2023-08-06T09:23:42;0.63;;;0.30;;
20230;SDS011;10274;49.022;9.338;2023-08-06T09:26:11;0.20;;;0.07;;
20230;SDS011;10274;49.022;9.338;2023-08-06T09:28:38;0.00;;;0.00;;
20230;SDS011;10274;49.022;9.338;2023-08-06T09:31:07;0.93;;;0.20;;
20230;SDS011;10274;49.022;9.338;2023-08-06T09:33:35;0.10;;;0.10;;
20230;SDS011;10274;49.022;9.338;2023-08-06T09:36:07;0.03;;;0.03;;
20230;SDS011;10274;49.022;9.338;2023-08-06T09:38:38;0.93;;;0.23;;
20230;SDS011;10274;49.022;9.338;2023-08-06T09:41:06;0.10;;;0.10;;
20230;SDS011;10274;49.022;9.338;2023-08-06T09:43:39;0.33;;;0.20;;
20230;SDS011;10274;49.022;9.338;2023-08-06T09:46:10;1.23;;;0.20;;
20230;SDS011;10274;49.022;9.338;2023-08-06T09:48:39;0.20;;;0.10;;
20230;SDS011;10274;49.022;9.338;2023-08-06T09:51:06;0.63;;;0.40;;
20230;SDS011;10274;49.022;9.338;2023-08-06T09:53:35;0.30;;;0.30;;
20230;SDS011;10274;49.022;9.338;2023-08-06T09:56:06;0.40;;;0.20;;
20230;SDS011;10274;49.022;9.338;2023-08-06T09:58:34;0.20;;;0.20;;
20230;SDS011;10274;49.022;9.338;2023-08-06T10:01:02;0.20;;;0.20;;
20230;SDS011;10274;49.022;9.338;2023-08-06T10:03:30;0.30;;;0.20;;
20230;SDS011;10274;49.022;9.338;2023-08-06T10:05:59;0.50;;;0.20;;
20230;SDS011;10274;49.022;9.338;2023-08-06T10:08:31;0.20;;;0.20;;
20230;SDS011;10274;49.022;9.338;2023-08-06T10:10:59;0.20;;;0.20;;
20230;SDS011;10274;49.022;9.338;2023-08-06T10:13:27;0.23;;;0.10;;
20230;SDS011;10274;49.022;9.338;2023-08-06T10:15:54;0.83;;;0.10;;
20230;SDS011;10274;49.022;9.338;2023-08-06T10:18:21;0.27;;;0.23;;
20230;SDS011;10274;49.022;9.338;2023-08-06T10:20:49;0.20;;;0.20;;
20230;SDS011;10274;49.022;9.338;2023-08-06T10:23:15;0.30;;;0.30;;
20230;SDS011;10274;49.022;9.338;2023-08-06T10:25:45;0.20;;;0.20;;
20230;SDS011;10274;49.022;9.338;2023-08-06T10:28:22;0.20;;;0.20;;
20230;SDS011;10274;49.022;9.338;2023-08-06T10:30:48;0.30;;;0.30;;
20230;SDS011;10274;49.022;9.338;2023-08-06T10:33:16;0.57;;;0.30;;
20230;SDS011;10274;49.022;9.338;2023-08-06T10:35:46;0.37;;;0.20;;
20230;SDS011;10274;49.022;9.338;2023-08-06T10:38:14;0.10;;;0.10;;
20230;SDS011;10274;49.022;9.338;2023-08-06T10:40:47;0.30;;;0.30;;
20230;SDS011;10274;49.022;9.338;2023-08-06T10:43:26;1.27;;;0.20;;
20230;SDS011;10274;49.022;9.338;2023-08-06T10:45:54;0.30;;;0.30;;
20230;SDS011;10274;49.022;9.338;2023-08-06T10:48:28;0.10;;;0.10;;
20230;SDS011;10274;49.022;9.338;2023-08-06T10:50:56;0.40;;;0.40;;
20230;SDS011;10274;49.022;9.338;2023-08-06T10:53:23;0.30;;;0.30;;
20230;SDS011;10274;49.022;9.338;2023-08-06T10:55:50;0.30;;;0.30;;
20230;SDS011;10274;49.022;9.338;2023-08-06T10:58:16;1.50;;;0.40;;
20230;SDS011;10274;49.022;9.338;2023-08-06T11:00:44;1.90;;;0.30;;
20230;SDS011;10274;49.022;9.338;2023-08-06T11:03:12;0.30;;;0.30;;
20230;SDS011;10274;49.022;9.338;2023-08-06T11:05:38;0.40;;;0.40;;
20230;SDS011;10274;49.022;9.338;2023-08-06T11:08:05;0.33;;;0.33;;
20230;SDS011;10274;49.022;9.338;2023-08-06T11:10:32;0.30;;;0.30;;
20230;SDS011;10274;49.022;9.338;2023-08-06T11:13:00;1.83;;;0.47;;
20230;SDS011;10274;49.022;9.338;2023-08-06T11:15:27;0.97;;;0.30;;
20230;SDS011;10274;49.022;9.338;2023-08-06T11:17:57;0.67;;;0.33;;
20230;SDS011;10274;49.022;9.338;2023-08-06T11:20:24;0.57;;;0.40;;
20230;SDS011;10274;49.022;9.338;2023-08-06T11:22:51;0.63;;;0.57;;
20230;SDS011;10274;49.022;9.338;2023-08-06T11:25:20;1.07;;;0.70;;
20230;SDS011;10274;49.022;9.338;2023-08-06T11:30:15;0.77;;;0.70;;
20230;SDS011;10274;49.022;9.338;2023-08-06T11:32:44;1.33;;;0.80;;
20230;SDS011;10274;49.022;9.338;2023-08-06T11:35:14;0.77;;;0.73;;
20230;SDS011;10274;49.022;9.338;2023-08-06T11:37:43;1.20;;;0.90;;
20230;SDS011;10274;49.022;9.338;2023-08-06T11:40:11;1.10;;;0.80;;
20230;SDS011;10274;49.022;9.338;2023-08-06T11:42:40;0.70;;;0.70;;
20230;SDS011;10274;49.022;9.338;2023-08-06T11:45:08;0.70;;;0.70;;
20230;SDS011;10274;49.022;9.338;2023-08-06T11:47:38;1.00;;;0.90;;
20230;SDS011;10274;49.022;9.338;2023-08-06T11:50:06;2.10;;;1.10;;
20230;SDS011;10274;49.022;9.338;2023-08-06T11:52:34;1.17;;;0.90;;
20230;SDS011;10274;49.022;9.338;2023-08-06T11:55:07;1.57;;;1.00;;
20230;SDS011;10274;49.022;9.338;2023-08-06T11:57:36;2.70;;;1.00;;
20230;SDS011;10274;49.022;9.338;2023-08-06T12:00:05;0.90;;;0.90;;
20230;SDS011;10274;49.022;9.338;2023-08-06T12:02:33;0.90;;;0.90;;
20230;SDS011;10274;49.022;9.338;2023-08-06T12:05:03;1.83;;;1.00;;
20230;SDS011;10274;49.022;9.338;2023-08-06T12:07:31;1.43;;;1.17;;
20230;SDS011;10274;49.022;9.338;2023-08-06T12:09:59;2.03;;;1.07;;
20230;SDS011;10274;49.022;9.338;2023-08-06T12:12:26;1.07;;;1.03;;
20230;SDS011;10274;49.022;9.338;2023-08-06T12:14:54;2.57;;;1.40;;
20230;SDS011;10274;49.022;9.338;2023-08-06T12:17:20;2.47;;;1.30;;
20230;SDS011;10274;49.022;9.338;2023-08-06T12:19:47;2.80;;;1.53;;
20230;SDS011;10274;49.022;9.338;2023-08-06T12:22:14;2.60;;;1.53;;
20230;SDS011;10274;49.022;9.338;2023-08-06T12:24:41;2.13;;;1.47;;
20230;SDS011;10274;49.022;9.338;2023-08-06T12:27:09;3.50;;;1.70;;
20230;SDS011;10274;49.022;9.338;2023-08-06T12:29:36;2.13;;;1.53;;
20230;SDS011;10274;49.022;9.338;2023-08-06T12:32:06;2.13;;;1.70;;
20230;SDS011;10274;49.022;9.338;2023-08-06T12:34:33;2.83;;;1.80;;
20230;SDS011;10274;49.022;9.338;2023-08-06T12:36:59;3.13;;;2.20;;
20230;SDS011;10274;49.022;9.338;2023-08-06T12:39:26;3.10;;;1.70;;
20230;SDS011;10274;49.022;9.338;2023-08-06T12:41:53;3.40;;;2.13;;
20230;SDS011;10274;49.022;9.338;2023-08-06T12:44:23;2.60;;;2.00;;
20230;SDS011;10274;49.022;9.338;2023-08-06T12:46:50;4.23;;;2.30;;
20230;SDS011;10274;49.022;9.338;2023-08-06T12:49:17;2.43;;;2.00;;
20230;SDS011;10274;49.022;9.338;2023-08-06T12:51:46;3.00;;;1.97;;
20230;SDS011;10274;49.022;9.338;2023-08-06T12:54:12;3.77;;;2.20;;
20230;SDS011;10274;49.022;9.338;2023-08-06T12:56:39;3.57;;;2.20;;
20230;SDS011;10274;49.022;9.338;2023-08-06T12:59:06;2.80;;;2.40;;
20230;SDS011;10274;49.022;9.338;2023-08-06T13:01:34;3.23;;;2.13;;
20230;SDS011;10274;49.022;9.338;2023-08-06T13:04:00;3.30;;;2.63;;
20230;SDS011;10274;49.022;9.338;2023-08-06T13:06:27;3.20;;;2.40;;
20230;SDS011;10274;49.022;9.338;2023-08-06T13:08:55;3.20;;;2.37;;
20230;SDS011;10274;49.022;9.338;2023-08-06T13:11:22;5.23;;;2.40;;
20230;SDS011;10274;49.022;9.338;2023-08-06T13:13:50;2.60;;;2.40;;
20230;SDS011;10274;49.022;9.338;2023-08-06T13:16:16;5.37;;;2.80;;
20230;SDS011;10274;49.022;9.338;2023-08-06T13:18:44;2.03;;;1.83;;
20230;SDS011;10274;49.022;9.338;2023-08-06T13:21:11;3.07;;;2.10;;
20230;SDS011;10274;49.022;9.338;2023-08-06T13:23:38;2.07;;;1.80;;
20230;SDS011;10274;49.022;9.338;2023-08-06T13:26:05;4.67;;;2.20;;
20230;SDS011;10274;49.022;9.338;2023-08-06T13:28:31;2.13;;;1.80;;
20230;SDS011;10274;49.022;9.338;2023-08-06T13:30:58;2.30;;;2.07;;
20230;SDS011;10274;49.022;9.338;2023-08-06T13:33:25;3.40;;;1.60;;
20230;SDS011;10274;49.022;9.338;2023-08-06T13:35:53;2.43;;;1.97;;
20230;SDS011;10274;49.022;9.338;2023-08-06T13:38:20;1.93;;;1.50;;
20230;SDS011;10274;49.022;9.338;2023-08-06T13:40:47;1.60;;;1.50;;
20230;SDS011;10274;49.022;9.338;2023-08-06T13:43:14;1.70;;;1.43;;
20230;SDS011;10274;49.022;9.338;2023-08-06T13:45:44;2.27;;;1.70;;
20230;SDS011;10274;49.022;9.338;2023-08-06T13:48:10;1.97;;;1.37;;
20230;SDS011;10274;49.022;9.338;2023-08-06T13:50:37;2.20;;;1.30;;
20230;SDS011;10274;49.022;9.338;2023-08-06T13:53:05;2.57;;;1.60;;
20230;SDS011;10274;49.022;9.338;2023-08-06T13:55:32;1.90;;;1.47;;
20230;SDS011;10274;49.022;9.338;2023-08-06T13:57:59;2.73;;;1.70;;
20230;SDS011;10274;49.022;9.338;2023-08-06T14:00:25;2.30;;;1.33;;
20230;SDS011;10274;49.022;9.338;2023-08-06T14:02:52;1.70;;;1.40;;
20230;SDS011;10274;49.022;9.338;2023-08-06T14:05:19;2.10;;;1.40;;
20230;SDS011;10274;49.022;9.338;2023-08-06T14:07:45;3.17;;;1.50;;
20230;SDS011;10274;49.022;9.338;2023-08-06T14:10:13;4.40;;;1.23;;
20230;SDS011;10274;49.022;9.338;2023-08-06T14:12:40;2.77;;;1.67;;
20230;SDS011;10274;49.022;9.338;2023-08-06T14:15:07;1.40;;;1.30;;
20230;SDS011;10274;49.022;9.338;2023-08-06T14:17:34;1.53;;;1.20;;
20230;SDS011;10274;49.022;9.338;2023-08-06T14:20:01;1.30;;;1.13;;
20230;SDS011;10274;49.022;9.338;2023-08-06T14:22:29;1.30;;;1.20;;
20230;SDS011;10274;49.022;9.338;2023-08-06T14:24:56;2.67;;;1.20;;
20230;SDS011;10274;49.022;9.338;2023-08-06T14:27:24;3.53;;;1.30;;
20230;SDS011;10274;49.022;9.338;2023-08-06T14:29:51;1.20;;;1.10;;
20230;SDS011;10274;49.022;9.338;2023-08-06T14:32:18;1.10;;;0.90;;
20230;SDS011;10274;49.022;9.338;2023-08-06T14:34:44;0.97;;;0.80;;
20230;SDS011;10274;49.022;9.338;2023-08-06T14:37:11;1.47;;;0.93;;
20230;SDS011;10274;49.022;9.338;2023-08-06T14:39:38;1.00;;;1.00;;
20230;SDS011;10274;49.022;9.338;2023-08-06T14:42:04;1.03;;;0.93;;
20230;SDS011;10274;49.022;9.338;2023-08-06T14:44:33;1.50;;;1.20;;
20230;SDS011;10274;49.022;9.338;2023-08-06T14:46:59;0.90;;;0.90;;
20230;SDS011;10274;49.022;9.338;2023-08-06T14:49:26;0.93;;;0.83;;
20230;SDS011;10274;49.022;9.338;2023-08-06T14:51:53;1.00;;;0.90;;